createdAt,value
2022-09-07T00:05:00.688Z,100.00
2022-09-07T00:10:03.924Z,100.00
2022-09-07T00:15:09.405Z,100.00
2022-09-07T00:20:12.390Z,100.00
2022-09-07T00:25:15.530Z,100.00
2022-09-07T00:30:18.835Z,100.00
2022-09-07T00:35:22.465Z,100.00
2022-09-07T00:40:25.257Z,100.00
2022-09-07T00:45:28.046Z,100.00
2022-09-07T00:50:30.922Z,100.00
2022-09-07T00:55:33.675Z,100.00
2022-09-07T01:00:36.701Z,100.00
2022-09-07T01:05:39.572Z,100.00
2022-09-07T01:10:42.375Z,100.00
2022-09-07T01:15:45.293Z,100.00
2022-09-07T01:20:50.470Z,100.00
2022-09-07T01:25:53.399Z,100.00
2022-09-07T01:30:56.731Z,100.00
2022-09-07T01:35:59.762Z,100.00
2022-09-07T01:41:02.558Z,100.00
2022-09-07T01:46:05.451Z,100.00
2022-09-07T01:51:08.232Z,100.00
2022-09-07T01:56:10.997Z,100.00
2022-09-07T02:01:13.821Z,100.00
2022-09-07T02:06:16.662Z,100.00
2022-09-07T02:11:19.431Z,100.00
2022-09-07T02:16:22.375Z,100.00
2022-09-07T02:21:27.641Z,100.00
2022-09-07T02:26:30.484Z,100.00
2022-09-07T02:31:33.305Z,100.00
2022-09-07T02:36:36.088Z,100.00
2022-09-07T02:41:39.506Z,100.00
2022-09-07T02:46:42.327Z,100.00
2022-09-07T02:51:45.125Z,100.00
2022-09-07T02:56:47.922Z,100.00
2022-09-07T03:01:50.712Z,100.00
2022-09-07T03:06:53.593Z,100.00
2022-09-07T03:11:56.400Z,100.00
2022-09-07T03:16:59.291Z,100.00
2022-09-07T03:22:02.118Z,100.00
2022-09-07T03:27:05.110Z,100.00
2022-09-07T03:32:07.998Z,100.00
2022-09-07T03:37:11.321Z,100.00
2022-09-07T03:42:14.215Z,100.00
2022-09-07T03:47:17.073Z,100.00
2022-09-07T03:52:19.905Z,100.00
2022-09-07T03:57:22.768Z,100.00
2022-09-07T04:02:26.734Z,100.00
2022-09-07T04:07:29.658Z,100.00
2022-09-07T04:12:32.449Z,100.00
2022-09-07T04:17:37.221Z,100.00
2022-09-07T04:22:40.097Z,100.00
2022-09-07T04:27:43.038Z,100.00
2022-09-07T04:32:46.157Z,100.00
2022-09-07T04:37:50.186Z,100.00
2022-09-07T04:42:52.986Z,100.00
2022-09-07T04:47:55.874Z,100.00
2022-09-07T04:52:58.676Z,100.00
2022-09-07T04:58:01.529Z,100.00
2022-09-07T05:03:04.433Z,100.00
2022-09-07T05:08:07.306Z,100.00
2022-09-07T05:13:10.194Z,100.00
2022-09-07T05:18:13.098Z,100.00
2022-09-07T05:23:16.981Z,100.00
2022-09-07T05:28:19.749Z,100.00
2022-09-07T05:33:22.812Z,100.00
2022-09-07T05:38:25.730Z,100.00
2022-09-07T05:43:28.536Z,100.00
2022-09-07T05:48:31.374Z,100.00
2022-09-07T05:53:34.381Z,100.00
2022-09-07T05:58:37.300Z,100.00
2022-09-07T06:03:40.202Z,100.00
2022-09-07T06:08:43.082Z,100.00
2022-09-07T06:13:46.010Z,100.00
2022-09-07T06:18:49.011Z,100.00
2022-09-07T06:23:51.901Z,100.00
2022-09-07T06:28:57.776Z,100.00
2022-09-07T06:34:06.820Z,100.00
2022-09-07T06:39:09.605Z,100.00
2022-09-07T06:44:12.524Z,100.00
2022-09-07T06:49:15.356Z,100.00
2022-09-07T06:59:42.260Z,100.00
2022-09-07T07:04:46.604Z,100.00
2022-09-07T07:09:49.541Z,100.00
2022-09-07T07:14:52.346Z,100.00
2022-09-07T07:19:55.220Z,100.00
2022-09-07T07:24:57.961Z,99.25
2022-09-07T07:30:00.774Z,93.63
2022-09-07T07:35:03.517Z,88.34
2022-09-07T07:50:39.361Z,81.31
2022-09-07T07:55:43.664Z,80.61
2022-09-07T08:00:55.802Z,81.60
2022-09-07T08:05:59.186Z,78.97
2022-09-07T08:11:01.941Z,80.72
2022-09-07T08:16:05.680Z,77.22
2022-09-07T08:21:08.777Z,78.55
2022-09-07T08:26:11.634Z,76.82
2022-09-07T08:31:14.642Z,72.35
2022-09-07T08:36:17.818Z,75.76
2022-09-07T08:41:20.592Z,73.55
2022-09-07T08:46:23.328Z,72.79
2022-09-07T08:51:26.189Z,74.20
2022-09-07T08:56:33.642Z,70.29
2022-09-07T09:01:37.024Z,68.68
2022-09-07T09:06:40.382Z,65.21
2022-09-07T09:11:44.441Z,64.12
2022-09-07T09:16:47.165Z,64.63
2022-09-07T09:21:49.899Z,64.33
2022-09-07T09:26:53.146Z,63.03
2022-09-07T09:31:56.449Z,61.28
2022-09-07T09:36:59.192Z,63.10
2022-09-07T09:42:01.960Z,61.53
2022-09-07T09:52:29.839Z,61.08
2022-09-07T09:57:36.506Z,55.80
2022-09-07T10:08:02.696Z,59.76
2022-09-07T10:13:08.784Z,58.83
2022-09-07T10:18:11.570Z,58.71
2022-09-07T10:23:14.556Z,63.05
2022-09-07T10:28:17.307Z,64.23
2022-09-07T10:33:21.059Z,65.05
2022-09-07T10:38:28.850Z,64.23
2022-09-07T10:43:31.597Z,64.82
2022-09-07T10:48:34.774Z,64.71
2022-09-07T10:54:29.262Z,65.38
2022-09-07T10:59:02.364Z,65.22
2022-09-07T11:04:06.017Z,63.24
2022-09-07T11:09:17.338Z,63.31
2022-09-07T11:14:20.524Z,63.36
2022-09-07T11:19:38.483Z,61.37
2022-09-07T11:24:41.306Z,63.57
2022-09-07T11:29:44.176Z,63.29
2022-09-07T11:34:46.917Z,64.61
2022-09-07T11:39:49.675Z,64.80
2022-09-07T11:44:52.523Z,64.10
2022-09-07T11:49:59.193Z,64.06
2022-09-07T11:55:02.398Z,63.34
2022-09-07T12:00:06.007Z,63.16
2022-09-07T12:05:09.992Z,61.79
2022-09-07T12:10:12.821Z,56.23
2022-09-07T12:15:15.567Z,58.00
2022-09-07T12:20:18.397Z,59.85
2022-09-07T12:25:21.381Z,59.67
2022-09-07T12:30:24.548Z,58.18
2022-09-07T12:35:27.322Z,56.78
2022-09-07T12:40:32.311Z,54.67
2022-09-07T12:45:35.084Z,54.82
2022-09-07T12:50:40.135Z,56.07
2022-09-07T13:01:05.989Z,51.83
2022-09-07T13:06:09.764Z,52.47
2022-09-07T13:11:12.613Z,51.75
2022-09-07T13:16:15.348Z,54.49
2022-09-07T13:21:18.483Z,53.67
2022-09-07T13:26:21.351Z,52.34
2022-09-07T13:31:24.128Z,49.21
2022-09-07T13:36:26.859Z,49.55
2022-09-07T13:41:29.562Z,50.18
2022-09-07T13:46:32.539Z,48.34
2022-09-07T13:51:36.038Z,48.27
2022-09-07T13:56:38.959Z,47.71
2022-09-07T14:01:41.845Z,47.42
2022-09-07T14:06:45.162Z,47.24
2022-09-07T14:11:48.105Z,45.64
2022-09-07T14:16:50.938Z,45.73
2022-09-07T14:21:53.830Z,44.92
2022-09-07T14:26:56.691Z,42.14
2022-09-07T14:31:59.619Z,45.10
2022-09-07T14:37:02.449Z,49.27
2022-09-07T14:42:05.310Z,49.77
2022-09-07T14:47:08.169Z,50.30
2022-09-07T14:52:11.334Z,49.39
2022-09-07T14:57:14.178Z,49.63
2022-09-07T15:02:17.325Z,48.27
2022-09-07T15:07:21.340Z,49.30
2022-09-07T15:12:32.992Z,48.61
2022-09-07T15:17:42.942Z,46.67
2022-09-07T15:22:46.181Z,47.28
2022-09-07T15:27:49.814Z,47.42
2022-09-07T15:32:54.731Z,50.22
2022-09-07T15:38:01.796Z,48.40
2022-09-07T15:43:19.276Z,47.09
2022-09-07T15:48:25.183Z,48.63
2022-09-07T15:58:54.363Z,47.68
2022-09-07T16:03:57.449Z,48.09
2022-09-07T16:09:00.409Z,48.79
2022-09-07T16:14:03.354Z,49.94
2022-09-07T16:19:07.332Z,50.43
2022-09-07T16:24:18.787Z,50.88
2022-09-07T16:29:21.650Z,51.52
2022-09-07T16:34:24.480Z,52.35
2022-09-07T16:39:29.126Z,50.48
2022-09-07T16:44:32.121Z,51.82
2022-09-07T16:49:34.914Z,52.59
2022-09-07T16:54:38.020Z,52.66
2022-09-07T16:59:40.740Z,56.50
2022-09-07T17:04:44.249Z,64.28
2022-09-07T17:09:47.107Z,68.08
2022-09-07T17:14:50.001Z,72.04
2022-09-07T17:19:53.289Z,73.74
2022-09-07T17:24:56.112Z,76.02
2022-09-07T17:29:59.014Z,78.17
2022-09-07T17:35:01.946Z,78.57
2022-09-07T17:40:07.170Z,80.79
2022-09-07T17:45:11.538Z,83.02
2022-09-07T17:50:14.426Z,83.24
2022-09-07T17:55:17.266Z,84.78
2022-09-07T18:00:20.407Z,85.83
2022-09-07T18:05:23.377Z,88.46
2022-09-07T18:10:26.852Z,89.63
2022-09-07T18:15:29.639Z,90.48
2022-09-07T18:20:34.343Z,91.24
2022-09-07T18:25:37.440Z,93.66
2022-09-07T18:30:42.258Z,94.21
2022-09-07T18:35:45.147Z,92.91
2022-09-07T18:40:47.913Z,95.39
2022-09-07T18:45:51.219Z,97.00
2022-09-07T18:50:54.231Z,97.97
2022-09-07T18:55:57.200Z,99.32
2022-09-07T19:01:00.140Z,100.00
2022-09-07T19:06:03.741Z,100.00
2022-09-07T19:11:07.885Z,100.00
2022-09-07T19:16:12.518Z,100.00
2022-09-07T19:21:16.895Z,100.00
2022-09-07T19:26:20.120Z,100.00
2022-09-07T19:31:23.118Z,100.00
2022-09-07T19:36:25.952Z,100.00
2022-09-07T19:41:28.927Z,100.00
2022-09-07T19:46:32.060Z,100.00
2022-09-07T19:51:37.519Z,100.00
2022-09-07T19:56:42.431Z,100.00
2022-09-07T20:01:47.453Z,100.00
2022-09-07T20:06:50.552Z,100.00
2022-09-07T20:11:53.463Z,100.00
2022-09-07T20:16:56.290Z,100.00
2022-09-07T20:21:59.213Z,100.00
2022-09-07T20:27:02.738Z,100.00
2022-09-07T20:32:05.492Z,100.00
2022-09-07T20:37:08.337Z,100.00
2022-09-07T20:42:11.086Z,100.00
2022-09-07T20:47:15.937Z,100.00
2022-09-07T20:52:19.067Z,100.00
2022-09-07T20:57:22.886Z,100.00
2022-09-07T21:02:25.870Z,100.00
2022-09-07T21:07:28.772Z,100.00
2022-09-07T21:12:31.559Z,100.00
2022-09-07T21:17:34.257Z,100.00
2022-09-07T21:22:37.171Z,100.00
2022-09-07T21:27:40.294Z,100.00
2022-09-07T21:32:43.089Z,100.00
2022-09-07T21:37:45.768Z,100.00
2022-09-07T21:42:54.402Z,100.00
2022-09-07T21:47:57.243Z,100.00
2022-09-07T21:53:00.041Z,100.00
2022-09-07T21:58:02.804Z,100.00
2022-09-07T22:03:06.140Z,100.00
2022-09-07T22:08:09.903Z,100.00
2022-09-07T22:13:14.889Z,100.00
2022-09-07T22:18:17.720Z,100.00
2022-09-07T22:23:20.417Z,100.00
2022-09-07T22:28:23.478Z,100.00
2022-09-07T22:33:26.170Z,100.00
2022-09-07T22:38:28.963Z,100.00
2022-09-07T22:43:31.681Z,100.00
2022-09-07T22:48:34.426Z,100.00
2022-09-07T22:53:37.134Z,100.00
2022-09-07T22:58:39.924Z,100.00
2022-09-07T23:03:42.710Z,100.00
2022-09-07T23:08:45.534Z,100.00
2022-09-07T23:13:48.447Z,100.00
2022-09-07T23:18:51.277Z,100.00
2022-09-07T23:23:54.333Z,100.00
2022-09-07T23:28:57.155Z,100.00
2022-09-07T23:34:00.149Z,100.00
2022-09-07T23:39:02.850Z,100.00
2022-09-07T23:44:05.640Z,100.00
2022-09-07T23:49:08.510Z,100.00
2022-09-07T23:54:12.679Z,100.00
2022-09-07T23:59:15.517Z,100.00
